createdAt,value
2022-12-23T00:00:52.051Z,158
2022-12-23T00:01:52.164Z,158
2022-12-23T00:02:52.257Z,158
2022-12-23T00:03:52.221Z,158
2022-12-23T00:04:52.109Z,158
2022-12-23T00:05:52.053Z,158
2022-12-23T00:06:52.058Z,158
2022-12-23T00:07:52.068Z,158
2022-12-23T00:08:52.051Z,158
2022-12-23T00:09:52.140Z,158
2022-12-23T00:10:52.062Z,158
2022-12-23T00:11:52.098Z,158
2022-12-23T00:12:52.118Z,158
2022-12-23T00:13:52.074Z,158
2022-12-23T00:14:52.113Z,158
2022-12-23T00:15:52.071Z,180
2022-12-23T00:16:52.198Z,180
2022-12-23T00:17:52.066Z,180
2022-12-23T00:18:52.078Z,180
2022-12-23T00:19:52.117Z,180
2022-12-23T00:20:52.149Z,180
2022-12-23T00:21:52.356Z,180
2022-12-23T00:22:52.090Z,180
2022-12-23T00:23:52.101Z,180
2022-12-23T00:24:52.130Z,180
2022-12-23T00:25:52.095Z,180
2022-12-23T00:26:52.099Z,180
2022-12-23T00:27:52.184Z,180
2022-12-23T00:28:52.097Z,180
2022-12-23T00:29:52.138Z,180
2022-12-23T00:30:52.143Z,180
2022-12-23T00:31:52.186Z,180
2022-12-23T00:32:52.108Z,158
2022-12-23T00:33:52.224Z,158
2022-12-23T00:34:52.180Z,158
2022-12-23T00:35:52.235Z,180
2022-12-23T00:36:52.207Z,180
2022-12-23T00:37:52.174Z,180
2022-12-23T00:38:52.146Z,180
2022-12-23T00:39:55.026Z,180
2022-12-23T00:40:52.153Z,180
2022-12-23T00:41:52.181Z,180
2022-12-23T00:42:52.222Z,180
2022-12-23T00:43:52.233Z,180
2022-12-23T00:44:52.264Z,180
2022-12-23T00:45:52.266Z,180
2022-12-23T00:46:52.192Z,180
2022-12-23T00:47:52.156Z,180
2022-12-23T00:48:52.160Z,180
2022-12-23T00:49:52.218Z,180
2022-12-23T00:50:52.217Z,180
2022-12-23T00:51:52.158Z,180
2022-12-23T00:52:52.159Z,180
2022-12-23T00:53:52.158Z,180
2022-12-23T00:54:52.217Z,180
2022-12-23T00:55:52.209Z,180
2022-12-23T00:56:52.156Z,180
2022-12-23T00:57:52.173Z,180
2022-12-23T00:58:52.176Z,180
2022-12-23T00:59:52.257Z,180
2022-12-23T01:00:52.211Z,180
2022-12-23T01:01:52.298Z,180
2022-12-23T01:02:52.286Z,180
2022-12-23T01:03:52.177Z,180
2022-12-23T01:04:52.223Z,180
2022-12-23T01:05:52.160Z,180
2022-12-23T01:06:52.155Z,180
2022-12-23T01:07:52.169Z,180
2022-12-23T01:08:52.279Z,180
2022-12-23T01:09:52.227Z,180
2022-12-23T01:10:52.332Z,180
2022-12-23T01:11:52.189Z,180
2022-12-23T01:12:52.188Z,180
2022-12-23T01:13:52.191Z,180
2022-12-23T01:14:52.190Z,180
2022-12-23T01:15:52.297Z,180
2022-12-23T01:16:52.267Z,180
2022-12-23T01:17:52.195Z,180
2022-12-23T01:18:52.207Z,180
2022-12-23T01:19:52.274Z,180
2022-12-23T01:20:52.320Z,180
2022-12-23T01:21:52.223Z,180
2022-12-23T01:22:52.208Z,180
2022-12-23T01:23:52.203Z,180
2022-12-23T01:24:52.204Z,180
2022-12-23T01:25:52.203Z,180
2022-12-23T01:26:52.202Z,180
2022-12-23T01:27:52.204Z,180
2022-12-23T01:28:52.196Z,180
2022-12-23T01:29:52.241Z,180
2022-12-23T01:30:52.288Z,180
2022-12-23T01:31:52.288Z,180
2022-12-23T01:32:52.206Z,180
2022-12-23T01:33:52.310Z,180
2022-12-23T01:34:52.204Z,180
2022-12-23T01:35:52.295Z,180
2022-12-23T01:36:52.221Z,180
2022-12-23T01:37:52.226Z,180
2022-12-23T01:38:52.225Z,180
2022-12-23T01:39:52.311Z,180
2022-12-23T01:40:52.315Z,180
2022-12-23T01:41:52.340Z,180
2022-12-23T01:42:52.239Z,180
2022-12-23T01:43:52.293Z,180
2022-12-23T01:44:52.298Z,180
2022-12-23T01:45:52.275Z,180
2022-12-23T01:46:52.244Z,180
2022-12-23T01:47:52.655Z,180
2022-12-23T01:48:52.260Z,180
2022-12-23T01:49:52.248Z,180
2022-12-23T01:50:52.258Z,180
2022-12-23T01:51:52.239Z,180
2022-12-23T01:52:52.362Z,180
2022-12-23T01:53:52.457Z,180
2022-12-23T01:54:52.259Z,180
2022-12-23T01:55:52.272Z,180
2022-12-23T01:56:52.249Z,180
2022-12-23T01:57:52.258Z,180
2022-12-23T01:58:52.280Z,180
2022-12-23T01:59:52.451Z,180
2022-12-23T02:00:52.274Z,180
2022-12-23T02:01:52.332Z,180
2022-12-23T02:02:52.335Z,180
2022-12-23T02:03:52.309Z,180
2022-12-23T02:04:52.281Z,180
2022-12-23T02:05:52.244Z,180
2022-12-23T02:06:52.339Z,180
2022-12-23T02:07:52.245Z,180
2022-12-23T02:08:52.266Z,180
2022-12-23T02:09:52.260Z,180
2022-12-23T02:10:52.259Z,180
2022-12-23T02:11:52.296Z,180
2022-12-23T02:12:52.255Z,180
2022-12-23T02:13:52.277Z,180
2022-12-23T02:14:52.303Z,180
2022-12-23T02:15:52.279Z,180
2022-12-23T02:16:52.300Z,180
2022-12-23T02:17:52.284Z,180
2022-12-23T02:18:52.292Z,180
2022-12-23T02:19:52.374Z,180
2022-12-23T02:20:52.274Z,180
2022-12-23T02:21:52.327Z,180
2022-12-23T02:22:52.345Z,180
2022-12-23T02:23:52.322Z,180
2022-12-23T02:24:52.320Z,180
2022-12-23T02:25:52.325Z,180
2022-12-23T02:26:52.396Z,180
2022-12-23T02:27:52.347Z,180
2022-12-23T02:28:52.338Z,180
2022-12-23T02:29:52.371Z,180
2022-12-23T02:30:52.415Z,180
2022-12-23T02:31:52.341Z,180
2022-12-23T02:32:52.340Z,180
2022-12-23T02:33:52.324Z,180
2022-12-23T02:34:52.384Z,180
2022-12-23T02:35:52.375Z,180
2022-12-23T02:36:52.426Z,180
2022-12-23T02:37:52.355Z,180
2022-12-23T02:38:52.437Z,180
2022-12-23T02:39:52.367Z,180
2022-12-23T02:40:52.325Z,180
2022-12-23T02:41:52.328Z,180
2022-12-23T02:42:52.369Z,180
2022-12-23T02:43:52.323Z,180
2022-12-23T02:44:52.441Z,180
2022-12-23T02:45:52.391Z,180
2022-12-23T02:46:52.336Z,180
2022-12-23T02:47:52.405Z,180
2022-12-23T02:48:52.318Z,180
2022-12-23T02:49:52.437Z,180
2022-12-23T02:50:52.490Z,158
2022-12-23T02:51:52.514Z,158
2022-12-23T02:52:52.381Z,158
2022-12-23T02:53:52.362Z,158
2022-12-23T02:54:52.451Z,158
2022-12-23T02:55:52.363Z,158
2022-12-23T02:56:52.370Z,158
2022-12-23T02:57:52.395Z,158
2022-12-23T02:58:52.437Z,158
2022-12-23T02:59:52.450Z,158
2022-12-23T03:00:52.460Z,248
2022-12-23T03:01:52.542Z,248
2022-12-23T03:02:52.622Z,248
2022-12-23T03:03:52.460Z,248
2022-12-23T03:04:52.379Z,248
2022-12-23T03:05:52.384Z,248
2022-12-23T03:06:52.393Z,248
2022-12-23T03:07:52.484Z,248
2022-12-23T03:08:52.402Z,248
2022-12-23T03:09:52.476Z,248
2022-12-23T03:10:52.461Z,248
2022-12-23T03:11:52.447Z,248
2022-12-23T03:12:52.481Z,248
2022-12-23T03:13:52.528Z,248
2022-12-23T03:14:52.493Z,338
2022-12-23T03:15:52.461Z,338
2022-12-23T03:16:52.545Z,338
2022-12-23T03:17:52.470Z,338
2022-12-23T03:18:52.456Z,338
2022-12-23T03:19:52.460Z,338
2022-12-23T03:20:52.451Z,338
2022-12-23T03:21:52.459Z,338
2022-12-23T03:22:52.460Z,338
2022-12-23T03:23:55.630Z,338
2022-12-23T03:24:52.517Z,338
2022-12-23T03:25:52.477Z,338
2022-12-23T03:26:52.472Z,338
2022-12-23T03:27:52.590Z,338
2022-12-23T03:28:52.538Z,338
2022-12-23T03:29:52.690Z,338
2022-12-23T03:30:52.613Z,338
2022-12-23T03:31:52.572Z,338
2022-12-23T03:32:52.610Z,338
2022-12-23T03:33:52.572Z,338
2022-12-23T03:34:52.600Z,338
2022-12-23T03:35:52.649Z,338
2022-12-23T03:36:52.591Z,338
2022-12-23T03:37:52.638Z,338
2022-12-23T03:38:52.605Z,338
2022-12-23T03:39:52.649Z,338
2022-12-23T03:40:52.673Z,338
2022-12-23T03:41:52.659Z,338
2022-12-23T03:42:52.634Z,338
2022-12-23T03:43:52.615Z,338
2022-12-23T03:45:19.538Z,338
2022-12-23T03:45:52.639Z,315
2022-12-23T03:46:52.833Z,315
2022-12-23T03:47:52.560Z,315
2022-12-23T03:48:52.583Z,270
2022-12-23T03:49:52.646Z,270
2022-12-23T03:50:52.605Z,270
2022-12-23T03:51:52.615Z,270
2022-12-23T03:52:52.552Z,338
2022-12-23T03:53:52.566Z,338
2022-12-23T03:54:52.607Z,338
2022-12-23T03:55:52.664Z,338
2022-12-23T03:56:52.594Z,338
2022-12-23T03:57:52.628Z,338
2022-12-23T03:58:52.603Z,338
2022-12-23T03:59:52.607Z,68
2022-12-23T04:00:52.611Z,68
2022-12-23T04:01:52.724Z,68
2022-12-23T04:02:52.772Z,68
2022-12-23T04:03:52.647Z,338
2022-12-23T04:04:52.620Z,338
2022-12-23T04:05:52.833Z,338
2022-12-23T04:06:52.664Z,292
2022-12-23T04:07:52.628Z,292
2022-12-23T04:08:52.635Z,292
2022-12-23T04:09:52.766Z,292
2022-12-23T04:10:52.689Z,292
2022-12-23T04:11:52.729Z,292
2022-12-23T04:12:52.714Z,292
2022-12-23T04:13:52.682Z,270
2022-12-23T04:14:52.705Z,270
2022-12-23T04:15:52.716Z,270
2022-12-23T04:16:52.763Z,270
2022-12-23T04:17:52.693Z,270
2022-12-23T04:18:52.742Z,270
2022-12-23T04:19:52.769Z,270
2022-12-23T04:20:52.708Z,270
2022-12-23T04:21:52.845Z,270
2022-12-23T04:22:52.721Z,270
2022-12-23T04:23:52.710Z,270
2022-12-23T04:24:52.763Z,270
2022-12-23T04:25:52.762Z,270
2022-12-23T04:26:52.718Z,270
2022-12-23T04:27:52.793Z,270
2022-12-23T04:28:52.735Z,270
2022-12-23T04:29:52.766Z,270
2022-12-23T04:30:52.761Z,45
2022-12-23T04:31:52.917Z,45
2022-12-23T04:32:52.751Z,45
2022-12-23T04:33:52.739Z,45
2022-12-23T04:34:52.740Z,248
2022-12-23T04:35:52.744Z,248
2022-12-23T04:36:52.734Z,248
2022-12-23T04:37:52.780Z,68
2022-12-23T04:38:52.728Z,68
2022-12-23T04:39:52.778Z,68
2022-12-23T04:40:52.732Z,315
2022-12-23T04:41:52.840Z,315
2022-12-23T04:42:52.752Z,315
2022-12-23T04:43:53.535Z,315
2022-12-23T04:44:52.915Z,315
2022-12-23T04:45:52.746Z,315
2022-12-23T04:46:52.845Z,315
2022-12-23T04:47:52.815Z,315
2022-12-23T04:48:52.804Z,315
2022-12-23T04:49:52.753Z,315
2022-12-23T04:50:52.742Z,315
2022-12-23T04:51:52.759Z,315
2022-12-23T04:52:52.791Z,315
2022-12-23T04:53:52.754Z,315
2022-12-23T04:54:52.792Z,68
2022-12-23T04:55:52.871Z,68
2022-12-23T04:56:52.865Z,68
2022-12-23T04:57:52.871Z,68
2022-12-23T04:58:52.832Z,68
2022-12-23T04:59:52.952Z,68
2022-12-23T05:00:52.838Z,68
2022-12-23T05:01:52.987Z,68
2022-12-23T05:02:53.027Z,68
2022-12-23T05:03:52.807Z,68
2022-12-23T05:04:52.876Z,68
2022-12-23T05:05:52.814Z,68
2022-12-23T05:06:52.817Z,68
2022-12-23T05:07:52.814Z,68
2022-12-23T05:08:52.812Z,22
2022-12-23T05:09:52.876Z,22
2022-12-23T05:10:52.817Z,22
2022-12-23T05:11:52.821Z,45
2022-12-23T05:12:52.810Z,45
2022-12-23T05:13:52.812Z,45
2022-12-23T05:14:52.886Z,45
2022-12-23T05:15:52.939Z,315
2022-12-23T05:16:52.859Z,315
2022-12-23T05:17:52.828Z,315
2022-12-23T05:18:52.913Z,22
2022-12-23T05:19:52.991Z,22
2022-12-23T05:20:52.859Z,22
2022-12-23T05:21:52.862Z,22
2022-12-23T05:22:52.880Z,338
2022-12-23T05:23:52.868Z,338
2022-12-23T05:24:52.872Z,338
2022-12-23T05:25:53.005Z,315
2022-12-23T05:26:59.623Z,315
2022-12-23T05:27:53.060Z,315
2022-12-23T05:28:53.004Z,315
2022-12-23T05:29:53.040Z,315
2022-12-23T05:30:52.977Z,292
2022-12-23T05:31:53.073Z,292
2022-12-23T05:32:53.001Z,292
2022-12-23T05:33:53.029Z,292
2022-12-23T05:34:53.025Z,292
2022-12-23T05:35:52.966Z,292
2022-12-23T05:36:52.969Z,292
2022-12-23T05:37:53.067Z,292
2022-12-23T05:38:52.977Z,292
2022-12-23T05:39:52.976Z,292
2022-12-23T05:40:53.056Z,292
2022-12-23T05:41:52.952Z,315
2022-12-23T05:42:52.928Z,315
2022-12-23T05:43:52.928Z,315
2022-12-23T05:44:52.965Z,338
2022-12-23T05:45:53.014Z,338
2022-12-23T05:46:52.975Z,338
2022-12-23T05:47:52.958Z,338
2022-12-23T05:48:52.954Z,338
2022-12-23T05:49:52.991Z,338
2022-12-23T05:50:52.964Z,338
2022-12-23T05:51:52.956Z,338
2022-12-23T05:52:52.927Z,338
2022-12-23T05:53:52.942Z,338
2022-12-23T05:54:52.987Z,338
2022-12-23T05:55:52.941Z,338
2022-12-23T05:56:53.001Z,338
2022-12-23T05:57:53.041Z,338
2022-12-23T05:58:53.052Z,338
2022-12-23T05:59:53.084Z,338
2022-12-23T06:00:52.968Z,338
2022-12-23T06:01:53.076Z,338
2022-12-23T06:02:54.062Z,45
2022-12-23T06:03:53.052Z,45
2022-12-23T06:04:53.002Z,45
2022-12-23T06:05:52.962Z,45
2022-12-23T06:06:52.968Z,45
2022-12-23T06:07:52.970Z,45
2022-12-23T06:08:57.589Z,45
2022-12-23T06:09:52.955Z,45
2022-12-23T06:10:52.995Z,45
2022-12-23T06:11:52.988Z,45
2022-12-23T06:12:52.962Z,45
2022-12-23T06:13:52.969Z,45
2022-12-23T06:14:52.979Z,45
2022-12-23T06:15:52.959Z,45
2022-12-23T06:16:53.027Z,45
2022-12-23T06:17:52.978Z,45
2022-12-23T06:18:52.974Z,45
2022-12-23T06:19:52.993Z,45
2022-12-23T06:20:53.013Z,45
2022-12-23T06:21:52.972Z,45
2022-12-23T06:22:52.977Z,45
2022-12-23T06:23:52.990Z,45
2022-12-23T06:24:52.965Z,45
2022-12-23T06:25:53.081Z,45
2022-12-23T06:26:56.934Z,45
2022-12-23T06:27:52.993Z,45
2022-12-23T06:28:53.018Z,45
2022-12-23T06:29:53.028Z,45
2022-12-23T06:30:53.024Z,45
2022-12-23T06:31:53.061Z,45
2022-12-23T06:32:52.986Z,45
2022-12-23T06:33:52.990Z,45
2022-12-23T06:34:53.065Z,45
2022-12-23T06:35:53.019Z,45
2022-12-23T06:36:53.039Z,45
2022-12-23T06:37:53.048Z,45
2022-12-23T06:38:52.991Z,45
2022-12-23T06:39:53.133Z,45
2022-12-23T06:40:53.012Z,45
2022-12-23T06:41:53.061Z,45
2022-12-23T06:42:53.023Z,45
2022-12-23T06:43:54.502Z,45
2022-12-23T06:44:53.236Z,45
2022-12-23T06:45:53.093Z,45
2022-12-23T06:46:53.173Z,45
2022-12-23T06:47:53.072Z,45
2022-12-23T06:48:53.069Z,45
2022-12-23T06:49:53.063Z,45
2022-12-23T06:50:53.051Z,45
2022-12-23T06:51:53.221Z,45
2022-12-23T06:52:53.099Z,68
2022-12-23T06:53:53.102Z,68
2022-12-23T06:54:53.147Z,68
2022-12-23T06:55:53.146Z,68
2022-12-23T06:56:53.084Z,68
2022-12-23T06:57:53.104Z,68
2022-12-23T06:58:53.053Z,68
2022-12-23T06:59:53.102Z,68
2022-12-23T07:00:53.088Z,68
2022-12-23T07:01:53.258Z,68
2022-12-23T07:02:53.291Z,68
2022-12-23T07:03:53.050Z,112
2022-12-23T07:04:53.099Z,112
2022-12-23T07:05:53.079Z,112
2022-12-23T07:06:53.054Z,112
2022-12-23T07:07:53.185Z,112
2022-12-23T07:08:53.138Z,112
2022-12-23T07:09:53.117Z,112
2022-12-23T07:10:53.131Z,112
2022-12-23T07:11:53.110Z,112
2022-12-23T07:12:53.068Z,112
2022-12-23T07:13:53.073Z,112
2022-12-23T07:14:53.133Z,112
2022-12-23T07:15:53.197Z,112
2022-12-23T07:16:53.164Z,45
2022-12-23T07:17:53.136Z,45
2022-12-23T07:18:53.126Z,45
2022-12-23T07:19:53.135Z,45
2022-12-23T07:20:53.117Z,45
2022-12-23T07:21:53.185Z,45
2022-12-23T07:22:53.110Z,45
2022-12-23T07:23:53.211Z,45
2022-12-23T07:24:53.172Z,45
2022-12-23T07:25:53.145Z,45
2022-12-23T07:26:53.108Z,45
2022-12-23T07:27:53.223Z,45
2022-12-23T07:28:53.123Z,45
2022-12-23T07:29:53.140Z,45
2022-12-23T07:30:53.106Z,45
2022-12-23T07:31:53.215Z,45
2022-12-23T07:32:53.105Z,45
2022-12-23T07:33:53.166Z,45
2022-12-23T07:34:53.268Z,45
2022-12-23T07:35:53.104Z,45
2022-12-23T07:36:53.149Z,45
2022-12-23T07:37:53.095Z,68
2022-12-23T07:38:53.127Z,68
2022-12-23T07:39:53.422Z,68
2022-12-23T07:40:53.304Z,68
2022-12-23T07:42:09.293Z,68
2022-12-23T07:42:53.279Z,68
2022-12-23T07:43:53.277Z,68
2022-12-23T07:44:53.277Z,68
2022-12-23T07:45:59.410Z,68
2022-12-23T07:46:53.256Z,68
2022-12-23T07:47:53.257Z,68
2022-12-23T07:48:53.250Z,68
2022-12-23T07:49:53.246Z,68
2022-12-23T07:50:53.246Z,68
2022-12-23T07:51:53.354Z,68
2022-12-23T07:52:53.280Z,68
2022-12-23T07:53:53.272Z,68
2022-12-23T07:54:53.296Z,68
2022-12-23T07:55:56.520Z,68
2022-12-23T07:56:53.229Z,68
2022-12-23T07:57:53.277Z,68
2022-12-23T07:58:53.289Z,68
2022-12-23T07:59:53.233Z,68
2022-12-23T08:00:53.286Z,68
2022-12-23T08:01:53.391Z,68
2022-12-23T08:02:53.292Z,68
2022-12-23T08:03:53.316Z,68
2022-12-23T08:04:53.263Z,68
2022-12-23T08:05:53.216Z,68
2022-12-23T08:06:53.229Z,68
2022-12-23T08:07:53.253Z,68
2022-12-23T08:08:53.221Z,68
2022-12-23T08:09:53.282Z,68
2022-12-23T08:10:53.227Z,68
2022-12-23T08:11:53.258Z,68
2022-12-23T08:12:53.240Z,68
2022-12-23T08:13:53.226Z,68
2022-12-23T08:14:53.217Z,68
2022-12-23T08:15:53.230Z,68
2022-12-23T08:16:53.331Z,68
2022-12-23T08:17:53.225Z,68
2022-12-23T08:18:53.239Z,68
2022-12-23T08:19:53.220Z,68
2022-12-23T08:20:53.223Z,68
2022-12-23T08:21:53.271Z,68
2022-12-23T08:22:53.236Z,68
2022-12-23T08:23:53.238Z,68
2022-12-23T08:24:53.266Z,68
2022-12-23T08:25:53.236Z,68
2022-12-23T08:26:53.239Z,68
2022-12-23T08:27:53.252Z,68
2022-12-23T08:28:53.381Z,68
2022-12-23T08:29:53.261Z,68
2022-12-23T08:30:53.282Z,68
2022-12-23T08:31:53.241Z,68
2022-12-23T08:32:53.245Z,68
2022-12-23T08:33:53.243Z,68
2022-12-23T08:34:53.276Z,68
2022-12-23T08:35:53.439Z,68
2022-12-23T08:36:53.229Z,68
2022-12-23T08:37:53.306Z,68
2022-12-23T08:38:53.315Z,68
2022-12-23T08:39:53.334Z,68
2022-12-23T08:40:53.263Z,68
2022-12-23T08:41:53.311Z,68
2022-12-23T08:42:53.334Z,68
2022-12-23T08:43:53.286Z,68
2022-12-23T08:44:53.322Z,68
2022-12-23T08:45:53.460Z,68
2022-12-23T08:46:53.273Z,68
2022-12-23T08:47:53.285Z,68
2022-12-23T08:48:53.327Z,68
2022-12-23T08:49:53.324Z,68
2022-12-23T08:50:53.325Z,68
2022-12-23T08:51:53.323Z,68
2022-12-23T08:52:53.294Z,90
2022-12-23T08:53:58.035Z,90
2022-12-23T08:54:53.322Z,90
2022-12-23T08:55:53.320Z,135
2022-12-23T08:56:53.325Z,135
2022-12-23T08:57:53.322Z,135
2022-12-23T08:58:53.367Z,135
2022-12-23T08:59:53.367Z,135
2022-12-23T09:00:53.378Z,135
2022-12-23T09:01:53.511Z,135
2022-12-23T09:02:53.423Z,135
2022-12-23T09:03:53.371Z,135
2022-12-23T09:04:53.351Z,180
2022-12-23T09:05:53.333Z,180
2022-12-23T09:06:53.327Z,180
2022-12-23T09:07:53.322Z,158
2022-12-23T09:08:53.371Z,158
2022-12-23T09:09:53.375Z,158
2022-12-23T09:10:53.323Z,158
2022-12-23T09:11:53.326Z,135
2022-12-23T09:12:53.321Z,135
2022-12-23T09:13:53.341Z,135
2022-12-23T09:14:53.356Z,135
2022-12-23T09:15:53.430Z,135
2022-12-23T09:16:53.382Z,135
2022-12-23T09:17:53.331Z,135
2022-12-23T09:18:53.334Z,135
2022-12-23T09:19:53.560Z,158
2022-12-23T09:20:53.397Z,158
2022-12-23T09:21:53.370Z,158
2022-12-23T09:22:53.334Z,158
2022-12-23T09:23:53.465Z,90
2022-12-23T09:24:53.525Z,90
2022-12-23T09:25:53.337Z,90
2022-12-23T09:26:53.455Z,248
2022-12-23T09:27:53.350Z,248
2022-12-23T09:28:53.355Z,248
2022-12-23T09:29:53.350Z,248
2022-12-23T09:30:53.423Z,180
2022-12-23T09:31:53.463Z,180
2022-12-23T09:32:53.365Z,180
2022-12-23T09:33:53.385Z,180
2022-12-23T09:34:53.355Z,270
2022-12-23T09:35:53.353Z,270
2022-12-23T09:36:55.384Z,270
2022-12-23T09:37:53.375Z,270
2022-12-23T09:38:53.386Z,270
2022-12-23T09:39:53.438Z,270
2022-12-23T09:40:53.356Z,248
2022-12-23T09:41:53.370Z,248
2022-12-23T09:42:53.353Z,248
2022-12-23T09:43:53.466Z,248
2022-12-23T09:44:53.412Z,248
2022-12-23T09:45:53.375Z,248
2022-12-23T09:46:53.501Z,248
2022-12-23T09:47:53.601Z,248
2022-12-23T09:48:53.486Z,248
2022-12-23T09:49:53.569Z,158
2022-12-23T09:50:53.478Z,158
2022-12-23T09:51:53.527Z,158
2022-12-23T09:52:53.546Z,158
2022-12-23T09:53:53.721Z,248
2022-12-23T09:54:53.508Z,248
2022-12-23T09:55:53.535Z,248
2022-12-23T09:56:53.544Z,248
2022-12-23T09:57:53.716Z,248
2022-12-23T09:58:53.547Z,248
2022-12-23T09:59:53.611Z,248
2022-12-23T10:00:53.527Z,248
2022-12-23T10:01:53.717Z,248
2022-12-23T10:02:53.715Z,135
2022-12-23T10:03:53.862Z,135
2022-12-23T10:04:53.592Z,135
2022-12-23T10:05:53.580Z,135
2022-12-23T10:06:56.288Z,202
2022-12-23T10:07:53.561Z,202
2022-12-23T10:08:53.573Z,202
2022-12-23T10:09:53.598Z,180
2022-12-23T10:10:53.577Z,180
2022-12-23T10:11:53.565Z,180
2022-12-23T10:12:53.679Z,180
2022-12-23T10:13:53.585Z,158
2022-12-23T10:14:53.574Z,158
2022-12-23T10:15:53.675Z,158
2022-12-23T10:16:53.569Z,158
2022-12-23T10:17:53.732Z,158
2022-12-23T10:18:53.577Z,158
2022-12-23T10:19:53.674Z,158
2022-12-23T10:20:53.599Z,225
2022-12-23T10:21:53.642Z,225
2022-12-23T10:22:53.624Z,225
2022-12-23T10:23:53.621Z,225
2022-12-23T10:24:53.636Z,158
2022-12-23T10:25:53.602Z,158
2022-12-23T10:26:53.563Z,158
2022-12-23T10:27:53.562Z,158
2022-12-23T10:28:53.631Z,225
2022-12-23T10:29:53.633Z,225
2022-12-23T10:31:17.054Z,225
2022-12-23T10:31:53.625Z,225
2022-12-23T10:32:53.596Z,225
2022-12-23T10:33:53.600Z,225
2022-12-23T10:34:53.628Z,202
2022-12-23T10:35:53.731Z,202
2022-12-23T10:36:53.620Z,202
2022-12-23T10:37:53.565Z,202
2022-12-23T10:38:53.590Z,202
2022-12-23T10:39:53.792Z,158
2022-12-23T10:40:53.596Z,158
2022-12-23T10:41:53.620Z,158
2022-12-23T10:42:53.640Z,158
2022-12-23T10:43:53.700Z,158
2022-12-23T10:44:53.659Z,158
2022-12-23T10:45:53.670Z,158
2022-12-23T10:46:53.688Z,135
2022-12-23T10:47:53.630Z,135
2022-12-23T10:48:53.607Z,135
2022-12-23T10:49:53.673Z,135
2022-12-23T10:50:53.629Z,135
2022-12-23T10:51:53.715Z,135
2022-12-23T10:52:53.611Z,135
2022-12-23T10:53:53.645Z,135
2022-12-23T10:54:53.668Z,135
2022-12-23T10:55:53.646Z,135
2022-12-23T10:56:53.627Z,158
2022-12-23T10:57:53.781Z,158
2022-12-23T10:58:53.731Z,158
2022-12-23T10:59:53.801Z,158
2022-12-23T11:00:53.825Z,158
2022-12-23T11:01:54.042Z,158
2022-12-23T11:02:53.796Z,158
2022-12-23T11:03:53.897Z,180
2022-12-23T11:04:53.807Z,180
2022-12-23T11:05:53.720Z,180
2022-12-23T11:07:11.025Z,180
2022-12-23T11:07:53.723Z,180
2022-12-23T11:08:53.751Z,180
2022-12-23T11:09:53.810Z,180
2022-12-23T11:10:53.708Z,180
2022-12-23T11:11:53.704Z,180
2022-12-23T11:12:53.740Z,180
2022-12-23T11:13:53.700Z,180
2022-12-23T11:14:53.743Z,180
2022-12-23T11:15:53.762Z,180
2022-12-23T11:16:53.785Z,22
2022-12-23T11:17:53.703Z,22
2022-12-23T11:18:53.705Z,22
2022-12-23T11:19:53.744Z,22
2022-12-23T11:20:53.698Z,22
2022-12-23T11:21:53.735Z,22
2022-12-23T11:22:53.770Z,22
2022-12-23T11:23:53.735Z,22
2022-12-23T11:24:53.759Z,22
2022-12-23T11:25:53.709Z,22
2022-12-23T11:26:53.726Z,22
2022-12-23T11:27:53.788Z,22
2022-12-23T11:28:53.729Z,22
2022-12-23T11:29:53.756Z,22
2022-12-23T11:30:56.407Z,22
2022-12-23T11:31:53.897Z,22
2022-12-23T11:32:53.743Z,22
2022-12-23T11:33:53.746Z,22
2022-12-23T11:34:53.770Z,22
2022-12-23T11:35:53.724Z,22
2022-12-23T11:36:55.831Z,22
2022-12-23T11:37:53.741Z,22
2022-12-23T11:38:53.749Z,22
2022-12-23T11:39:53.817Z,22
2022-12-23T11:40:53.747Z,22
2022-12-23T11:41:53.759Z,22
2022-12-23T11:42:55.386Z,22
2022-12-23T11:43:53.775Z,22
2022-12-23T11:44:53.764Z,22
2022-12-23T11:45:53.985Z,22
2022-12-23T11:46:53.866Z,22
2022-12-23T11:47:53.782Z,22
2022-12-23T11:48:54.952Z,22
2022-12-23T11:49:53.911Z,22
2022-12-23T11:50:53.775Z,22
2022-12-23T11:51:53.786Z,22
2022-12-23T11:52:53.774Z,22
2022-12-23T11:53:53.785Z,22
2022-12-23T11:54:54.657Z,22
2022-12-23T11:55:53.937Z,22
2022-12-23T11:56:53.810Z,22
2022-12-23T11:57:53.938Z,22
2022-12-23T11:58:54.008Z,22
2022-12-23T11:59:53.945Z,45
2022-12-23T12:00:55.920Z,45
2022-12-23T12:01:53.969Z,45
2022-12-23T12:02:53.999Z,45
2022-12-23T12:03:54.087Z,45
2022-12-23T12:04:53.975Z,45
2022-12-23T12:05:54.010Z,202
2022-12-23T12:06:56.507Z,202
2022-12-23T12:07:53.977Z,202
2022-12-23T12:08:53.878Z,202
2022-12-23T12:09:53.959Z,202
2022-12-23T12:10:53.895Z,202
2022-12-23T12:11:53.931Z,202
2022-12-23T12:12:55.043Z,202
2022-12-23T12:13:54.040Z,202
2022-12-23T12:14:53.895Z,202
2022-12-23T12:15:53.901Z,158
2022-12-23T12:16:53.968Z,158
2022-12-23T12:17:53.990Z,158
2022-12-23T12:18:55.795Z,158
2022-12-23T12:19:54.076Z,135
2022-12-23T12:20:53.922Z,135
2022-12-23T12:21:54.093Z,135
2022-12-23T12:22:53.987Z,158
2022-12-23T12:24:08.595Z,158
2022-12-23T12:24:53.950Z,158
2022-12-23T12:25:53.973Z,158
2022-12-23T12:26:53.952Z,158
2022-12-23T12:27:54.225Z,158
2022-12-23T12:28:54.065Z,158
2022-12-23T12:29:54.114Z,158
2022-12-23T12:30:54.059Z,158
2022-12-23T12:31:54.083Z,158
2022-12-23T12:32:54.024Z,158
2022-12-23T12:33:54.182Z,158
2022-12-23T12:34:54.233Z,158
2022-12-23T12:35:55.943Z,158
2022-12-23T12:36:54.076Z,158
2022-12-23T12:37:54.451Z,158
2022-12-23T12:38:54.281Z,158
2022-12-23T12:39:54.329Z,158
2022-12-23T12:40:54.285Z,158
2022-12-23T12:41:57.258Z,158
2022-12-23T12:42:54.342Z,158
2022-12-23T12:43:54.369Z,158
2022-12-23T12:44:54.380Z,158
2022-12-23T12:45:54.356Z,158
2022-12-23T12:46:54.258Z,158
2022-12-23T12:47:56.956Z,158
2022-12-23T12:48:54.293Z,158
2022-12-23T12:49:54.343Z,158
2022-12-23T12:50:54.364Z,158
2022-12-23T12:51:54.448Z,158
2022-12-23T12:52:54.303Z,158
2022-12-23T12:53:55.385Z,158
2022-12-23T12:54:54.362Z,158
2022-12-23T12:55:54.426Z,158
2022-12-23T12:56:54.280Z,158
2022-12-23T12:57:54.460Z,158
2022-12-23T12:58:54.295Z,158
2022-12-23T12:59:57.432Z,158
2022-12-23T13:00:54.346Z,158
2022-12-23T13:01:54.399Z,158
2022-12-23T13:02:54.558Z,158
2022-12-23T13:03:54.333Z,158
2022-12-23T13:04:54.332Z,158
2022-12-23T13:05:54.694Z,158
2022-12-23T13:06:54.328Z,158
2022-12-23T13:07:54.323Z,158
2022-12-23T13:08:54.306Z,158
2022-12-23T13:09:54.524Z,158
2022-12-23T13:10:54.329Z,158
2022-12-23T13:11:54.371Z,158
2022-12-23T13:12:54.358Z,158
2022-12-23T13:13:54.354Z,158
2022-12-23T13:14:54.329Z,158
2022-12-23T13:15:54.320Z,158
2022-12-23T13:16:54.376Z,158
2022-12-23T13:17:56.592Z,158
2022-12-23T13:18:54.301Z,158
2022-12-23T13:19:54.400Z,158
2022-12-23T13:20:54.312Z,135
2022-12-23T13:21:54.383Z,135
2022-12-23T13:22:54.328Z,135
2022-12-23T13:23:57.017Z,158
2022-12-23T13:24:54.341Z,158
2022-12-23T13:25:54.337Z,158
2022-12-23T13:26:54.384Z,158
2022-12-23T13:27:54.339Z,158
2022-12-23T13:28:54.362Z,158
2022-12-23T13:29:57.917Z,158
2022-12-23T13:30:54.416Z,158
2022-12-23T13:31:54.656Z,158
2022-12-23T13:32:54.333Z,158
2022-12-23T13:33:54.346Z,158
2022-12-23T13:34:54.404Z,158
2022-12-23T13:35:56.343Z,158
2022-12-23T13:36:54.469Z,158
2022-12-23T13:37:54.414Z,158
2022-12-23T13:38:54.400Z,158
2022-12-23T13:39:54.428Z,180
2022-12-23T13:40:54.433Z,180
2022-12-23T13:41:57.362Z,180
2022-12-23T13:42:54.458Z,180
2022-12-23T13:43:54.444Z,180
2022-12-23T13:44:54.394Z,180
2022-12-23T13:45:54.465Z,180
2022-12-23T13:46:54.385Z,180
2022-12-23T13:47:57.208Z,180
2022-12-23T13:48:54.407Z,180
2022-12-23T13:49:54.443Z,180
2022-12-23T13:50:54.408Z,180
2022-12-23T13:51:54.479Z,180
2022-12-23T13:52:54.428Z,180
2022-12-23T13:53:56.897Z,180
2022-12-23T13:54:54.419Z,180